createdAt,value
2019-01-30T00:02:00.191Z,4.40
2019-01-30T00:04:27.628Z,4.90
2019-01-30T00:06:54.927Z,4.50
2019-01-30T00:09:21.988Z,4.27
2019-01-30T00:11:52.250Z,3.83
2019-01-30T00:14:19.307Z,4.83
2019-01-30T00:16:46.347Z,4.50
2019-01-30T00:19:13.497Z,3.73
2019-01-30T00:21:40.629Z,3.33
2019-01-30T00:24:07.697Z,3.20
2019-01-30T00:26:34.751Z,3.57
2019-01-30T00:29:01.794Z,3.73
2019-01-30T00:31:28.843Z,3.20
2019-01-30T00:33:56.711Z,3.47
2019-01-30T00:36:23.759Z,3.40
2019-01-30T00:38:50.725Z,3.20
2019-01-30T00:41:17.755Z,3.60
2019-01-30T00:43:44.808Z,4.00
2019-01-30T00:46:11.959Z,4.83
2019-01-30T00:48:39.206Z,3.63
2019-01-30T00:51:06.260Z,2.43
2019-01-30T00:53:33.302Z,2.93
2019-01-30T00:56:00.351Z,2.57
2019-01-30T00:58:27.502Z,2.10
2019-01-30T01:00:54.863Z,1.30
2019-01-30T01:03:21.906Z,0.97
2019-01-30T01:05:48.970Z,2.13
2019-01-30T01:08:16.106Z,3.00
2019-01-30T01:10:43.467Z,2.43
2019-01-30T01:13:10.618Z,3.30
2019-01-30T01:15:38.175Z,3.00
2019-01-30T01:18:05.842Z,2.60
2019-01-30T01:20:32.889Z,3.03
2019-01-30T01:22:59.939Z,2.57
2019-01-30T01:25:27.299Z,2.77
2019-01-30T01:27:56.188Z,2.40
2019-01-30T01:30:25.788Z,3.00
2019-01-30T01:32:52.745Z,3.17
2019-01-30T01:35:19.790Z,3.40
2019-01-30T01:37:46.837Z,3.67
2019-01-30T01:40:15.121Z,2.80
2019-01-30T01:42:42.472Z,2.40
2019-01-30T01:45:10.543Z,2.53
2019-01-30T01:47:37.818Z,2.77
2019-01-30T01:50:04.958Z,2.83
2019-01-30T01:52:32.002Z,2.83
2019-01-30T01:54:59.351Z,2.30
2019-01-30T01:57:26.604Z,3.00
2019-01-30T01:59:53.864Z,2.70
2019-01-30T02:02:21.132Z,2.40
2019-01-30T02:04:48.363Z,4.37
2019-01-30T02:07:15.514Z,3.47
2019-01-30T02:09:42.667Z,2.60
2019-01-30T02:12:09.821Z,3.00
2019-01-30T02:14:37.080Z,3.20
2019-01-30T02:17:04.228Z,3.17
2019-01-30T02:19:31.242Z,3.00
2019-01-30T02:21:58.840Z,2.50
2019-01-30T02:24:25.879Z,2.63
2019-01-30T02:26:52.930Z,2.60
2019-01-30T02:29:20.388Z,3.03
2019-01-30T02:31:47.939Z,2.80
2019-01-30T02:34:15.403Z,2.87
2019-01-30T02:36:57.300Z,2.17
2019-01-30T02:39:46.135Z,2.63
2019-01-30T02:42:13.218Z,3.13
2019-01-30T02:44:40.369Z,3.27
2019-01-30T02:47:07.588Z,2.60
2019-01-30T02:49:34.666Z,3.00
2019-01-30T02:52:03.512Z,2.10
2019-01-30T02:54:30.601Z,1.90
2019-01-30T02:56:57.752Z,2.30
2019-01-30T02:59:25.056Z,2.10
2019-01-30T03:01:52.633Z,2.57
2019-01-30T03:04:19.722Z,2.50
2019-01-30T03:06:46.764Z,2.80
2019-01-30T03:09:15.879Z,2.50
2019-01-30T03:11:42.918Z,2.20
2019-01-30T03:14:10.062Z,0.53
2019-01-30T03:16:37.419Z,2.13
2019-01-30T03:19:06.515Z,1.70
2019-01-30T03:21:34.088Z,1.90
2019-01-30T03:24:03.593Z,2.10
2019-01-30T03:26:30.731Z,2.13
2019-01-30T03:29:00.235Z,2.50
2019-01-30T03:31:27.291Z,2.93
2019-01-30T03:33:54.333Z,3.10
2019-01-30T03:36:22.515Z,2.80
2019-01-30T03:38:49.556Z,2.50
2019-01-30T03:41:16.501Z,2.33
2019-01-30T03:43:44.364Z,2.60
2019-01-30T03:46:11.381Z,2.17
2019-01-30T03:48:38.461Z,2.70
2019-01-30T03:51:05.510Z,2.37
2019-01-30T03:53:32.762Z,2.80
2019-01-30T03:55:59.812Z,2.30
2019-01-30T03:58:26.887Z,2.33
2019-01-30T04:00:53.908Z,2.43
2019-01-30T04:03:20.971Z,3.10
2019-01-30T04:05:48.008Z,3.00
2019-01-30T04:08:15.258Z,2.93
2019-01-30T04:10:42.314Z,2.70
2019-01-30T04:13:09.354Z,3.63
2019-01-30T04:15:36.403Z,3.33
2019-01-30T04:18:03.457Z,2.40
2019-01-30T04:20:30.501Z,2.80
2019-01-30T04:22:57.578Z,2.43
2019-01-30T04:25:24.490Z,3.00
2019-01-30T04:27:51.542Z,2.97
2019-01-30T04:30:18.528Z,4.90
2019-01-30T04:32:47.073Z,3.27
2019-01-30T04:35:14.127Z,2.73
2019-01-30T04:37:41.175Z,3.10
2019-01-30T04:40:08.218Z,2.13
2019-01-30T04:42:35.272Z,2.43
2019-01-30T04:45:02.319Z,1.57
2019-01-30T04:47:29.362Z,2.03
2019-01-30T04:49:56.821Z,3.03
2019-01-30T04:52:26.532Z,2.30
2019-01-30T04:54:53.580Z,3.00
2019-01-30T04:59:55.359Z,3.23
2019-01-30T05:02:23.123Z,2.60
2019-01-30T05:04:51.974Z,2.50
2019-01-30T05:07:21.895Z,2.40
2019-01-30T05:09:50.522Z,2.70
2019-01-30T05:12:20.437Z,2.20
2019-01-30T05:14:51.396Z,2.20
2019-01-30T05:17:21.256Z,1.93
2019-01-30T05:19:50.527Z,2.43
2019-01-30T05:22:21.274Z,2.47
2019-01-30T05:24:50.472Z,2.07
2019-01-30T05:27:17.477Z,2.53
2019-01-30T05:29:44.515Z,2.33
2019-01-30T05:32:11.563Z,1.80
2019-01-30T05:34:38.555Z,2.20
2019-01-30T05:37:05.557Z,2.93
2019-01-30T05:39:32.620Z,3.50
2019-01-30T05:41:59.656Z,3.13
2019-01-30T05:44:26.605Z,2.40
2019-01-30T05:46:53.648Z,4.10
2019-01-30T05:49:23.363Z,3.60
2019-01-30T05:51:50.407Z,3.23
2019-01-30T05:54:17.408Z,4.03
2019-01-30T05:56:44.817Z,2.67
2019-01-30T05:59:13.825Z,3.67
2019-01-30T06:01:40.855Z,6.03
2019-01-30T06:04:07.903Z,4.20
2019-01-30T06:06:34.961Z,4.70
2019-01-30T06:09:02.186Z,3.10
2019-01-30T06:11:29.260Z,2.60
2019-01-30T06:13:56.513Z,3.33
2019-01-30T06:16:23.766Z,2.90
2019-01-30T06:18:50.808Z,2.37
2019-01-30T06:21:17.967Z,3.50
2019-01-30T06:23:45.428Z,3.70
2019-01-30T06:26:12.488Z,3.30
2019-01-30T06:28:39.514Z,3.43
2019-01-30T06:31:06.428Z,2.63
2019-01-30T06:33:33.403Z,2.83
2019-01-30T06:36:00.458Z,2.73
2019-01-30T06:38:27.554Z,2.93
2019-01-30T06:40:54.706Z,3.50
2019-01-30T06:43:21.910Z,3.13
2019-01-30T06:45:49.262Z,0.87
2019-01-30T06:48:39.564Z,2.83
2019-01-30T06:51:28.054Z,3.50
2019-01-30T06:53:55.059Z,17.33
2019-01-30T06:56:22.141Z,15.53
2019-01-30T06:58:50.282Z,27.37
2019-01-30T07:01:17.325Z,23.47
2019-01-30T07:03:44.373Z,50.57
2019-01-30T07:06:14.440Z,7.77
2019-01-30T07:08:41.604Z,24.00
2019-01-30T07:11:10.598Z,74.10
2019-01-30T07:13:36.211Z,68.33
2019-01-30T07:16:03.408Z,42.20
2019-01-30T07:18:30.575Z,5.17
2019-01-30T07:20:57.606Z,4.27
2019-01-30T07:23:46.722Z,12.33
2019-01-30T07:26:13.719Z,7.87
2019-01-30T07:28:40.777Z,3.17
2019-01-30T07:31:07.818Z,4.70
2019-01-30T07:33:34.808Z,3.00
2019-01-30T07:36:01.760Z,5.67
2019-01-30T07:38:28.854Z,5.20
2019-01-30T07:40:55.902Z,3.47
2019-01-30T07:43:23.093Z,3.47
2019-01-30T07:45:50.109Z,3.90
2019-01-30T07:48:18.030Z,2.93
2019-01-30T07:50:45.223Z,3.87
2019-01-30T07:53:12.941Z,3.33
2019-01-30T07:55:39.965Z,3.47
2019-01-30T07:58:07.117Z,3.10
2019-01-30T08:00:34.207Z,3.70
2019-01-30T08:03:01.418Z,4.23
2019-01-30T08:05:28.419Z,2.53
2019-01-30T08:07:55.412Z,1.37
2019-01-30T08:10:22.456Z,3.00
2019-01-30T08:12:49.608Z,2.23
2019-01-30T08:15:18.550Z,1.90
2019-01-30T08:17:45.752Z,1.67
2019-01-30T08:20:12.821Z,2.63
2019-01-30T08:22:41.383Z,2.40
2019-01-30T08:25:07.567Z,1.90
2019-01-30T08:27:34.704Z,2.87
2019-01-30T08:30:03.244Z,2.20
2019-01-30T08:32:32.591Z,4.27
2019-01-30T08:34:59.397Z,0.43
2019-01-30T08:37:28.283Z,3.70
2019-01-30T08:39:55.343Z,1.90
2019-01-30T08:42:22.278Z,3.03
2019-01-30T08:44:49.326Z,1.87
2019-01-30T08:47:16.804Z,3.73
2019-01-30T08:49:43.730Z,1.93
2019-01-30T08:52:10.778Z,2.80
2019-01-30T08:54:38.544Z,3.77
2019-01-30T08:57:05.598Z,3.27
2019-01-30T08:59:32.641Z,1.03
2019-01-30T09:02:00.209Z,1.97
2019-01-30T09:04:27.249Z,3.10
2019-01-30T09:06:54.201Z,1.70
2019-01-30T09:09:21.245Z,3.33
2019-01-30T09:11:49.993Z,2.83
2019-01-30T09:14:16.982Z,1.60
2019-01-30T09:16:44.034Z,1.43
2019-01-30T09:19:11.076Z,2.70
2019-01-30T09:21:38.125Z,2.97
2019-01-30T09:24:05.180Z,3.10
2019-01-30T09:26:32.222Z,3.07
2019-01-30T09:28:59.271Z,4.73
2019-01-30T09:31:26.324Z,4.53
2019-01-30T09:33:53.374Z,3.57
2019-01-30T09:36:20.416Z,4.50
2019-01-30T09:38:47.470Z,5.17
2019-01-30T09:41:14.526Z,5.90
2019-01-30T09:43:41.562Z,2.63
2019-01-30T09:46:08.713Z,4.50
2019-01-30T09:48:37.074Z,3.87
2019-01-30T09:51:03.225Z,8.37
2019-01-30T09:53:31.299Z,4.93
2019-01-30T09:55:58.546Z,3.77
2019-01-30T09:58:25.545Z,3.20
2019-01-30T10:00:52.750Z,5.23
2019-01-30T10:03:21.752Z,3.00
2019-01-30T10:05:48.895Z,4.73
2019-01-30T10:08:17.168Z,5.10
2019-01-30T10:10:44.174Z,3.80
2019-01-30T10:13:11.276Z,3.60
2019-01-30T10:15:41.630Z,7.87
2019-01-30T10:18:11.087Z,6.27
2019-01-30T10:20:39.333Z,5.03
2019-01-30T10:23:06.324Z,5.33
2019-01-30T10:25:34.194Z,3.27
2019-01-30T10:28:03.410Z,3.83
2019-01-30T10:30:33.507Z,4.03
2019-01-30T10:33:01.672Z,7.60
2019-01-30T10:35:29.102Z,10.30
2019-01-30T10:37:56.189Z,3.33
2019-01-30T10:40:23.237Z,4.93
2019-01-30T10:42:50.289Z,7.93
2019-01-30T10:45:18.139Z,4.93
2019-01-30T10:47:46.796Z,4.23
2019-01-30T10:50:14.968Z,4.50
2019-01-30T10:52:41.973Z,7.33
2019-01-30T10:55:09.119Z,5.80
2019-01-30T10:57:36.162Z,3.33
2019-01-30T11:00:03.314Z,3.87
2019-01-30T11:02:30.480Z,6.70
2019-01-30T11:04:57.494Z,6.80
2019-01-30T11:07:24.923Z,5.07
2019-01-30T11:09:52.023Z,1.60
2019-01-30T11:12:19.064Z,5.43
2019-01-30T11:14:46.126Z,6.57
2019-01-30T11:17:14.595Z,6.07
2019-01-30T11:19:41.643Z,6.03
2019-01-30T11:22:08.707Z,3.67
2019-01-30T11:24:35.739Z,5.10
2019-01-30T11:27:02.824Z,4.03
2019-01-30T11:29:29.843Z,8.20
2019-01-30T11:31:56.885Z,6.30
2019-01-30T11:34:23.933Z,7.60
2019-01-30T11:36:52.005Z,5.53
2019-01-30T11:39:19.174Z,8.20
2019-01-30T11:41:46.213Z,9.13
2019-01-30T11:44:13.253Z,14.70
2019-01-30T11:46:40.712Z,5.77
2019-01-30T11:49:08.069Z,7.27
2019-01-30T11:51:35.123Z,3.27
2019-01-30T11:54:02.166Z,2.60
2019-01-30T11:56:29.116Z,3.60
2019-01-30T11:58:56.162Z,5.00
2019-01-30T12:01:23.210Z,3.97
2019-01-30T12:03:50.201Z,4.97
2019-01-30T12:06:17.313Z,4.90
2019-01-30T12:08:44.563Z,5.00
2019-01-30T12:11:11.607Z,6.00
2019-01-30T12:13:38.632Z,4.93
2019-01-30T12:16:06.632Z,4.90
2019-01-30T12:18:33.674Z,4.70
2019-01-30T12:21:00.723Z,5.00
2019-01-30T12:23:28.657Z,4.57
2019-01-30T12:25:57.650Z,4.47
2019-01-30T12:28:27.287Z,4.40
2019-01-30T12:30:54.453Z,5.57
2019-01-30T12:33:21.567Z,4.57
2019-01-30T12:35:48.646Z,4.93
2019-01-30T12:38:16.561Z,4.83
2019-01-30T12:40:43.562Z,5.00
2019-01-30T12:43:10.611Z,4.83
2019-01-30T12:45:37.868Z,6.80
2019-01-30T12:48:05.028Z,6.20
2019-01-30T12:50:32.066Z,7.33
2019-01-30T12:52:59.116Z,5.47
2019-01-30T12:55:26.139Z,5.30
2019-01-30T12:57:53.115Z,4.87
2019-01-30T13:00:24.047Z,4.80
2019-01-30T13:02:51.100Z,4.80
2019-01-30T13:05:18.152Z,4.97
2019-01-30T13:07:45.501Z,4.93
2019-01-30T13:10:12.560Z,4.60
2019-01-30T13:12:39.488Z,4.47
2019-01-30T13:15:07.371Z,4.57
2019-01-30T13:17:34.412Z,5.00
2019-01-30T13:20:01.466Z,4.43
2019-01-30T13:22:28.507Z,4.43
2019-01-30T13:24:55.657Z,4.37
2019-01-30T13:27:22.708Z,4.20
2019-01-30T13:29:49.857Z,3.70
2019-01-30T13:32:17.008Z,2.80
2019-01-30T13:34:49.030Z,3.43
2019-01-30T13:37:11.878Z,4.30
2019-01-30T13:39:38.921Z,4.10
2019-01-30T13:42:06.844Z,4.13
2019-01-30T13:44:33.903Z,4.70
2019-01-30T13:47:01.047Z,5.17
2019-01-30T13:49:28.229Z,3.83
2019-01-30T13:51:55.242Z,3.60
2019-01-30T13:54:22.296Z,4.43
2019-01-30T13:56:49.440Z,3.40
2019-01-30T13:59:16.400Z,4.10
2019-01-30T14:01:43.484Z,4.43
2019-01-30T14:04:10.898Z,4.10
2019-01-30T14:06:37.983Z,4.13
2019-01-30T14:09:05.113Z,4.33
2019-01-30T14:11:32.418Z,3.60
2019-01-30T14:13:59.535Z,3.50
2019-01-30T14:16:26.517Z,5.10
2019-01-30T14:18:53.614Z,4.70
2019-01-30T14:21:21.049Z,4.70
2019-01-30T14:23:48.319Z,4.90
2019-01-30T14:26:15.487Z,5.83
2019-01-30T14:28:42.503Z,3.90
2019-01-30T14:31:09.569Z,3.60
2019-01-30T14:33:36.573Z,3.33
2019-01-30T14:36:04.161Z,3.33
2019-01-30T14:38:31.324Z,7.93
2019-01-30T14:40:58.399Z,46.47
2019-01-30T14:43:25.438Z,26.70
2019-01-30T14:45:52.765Z,6.37
2019-01-30T14:48:19.720Z,4.20
2019-01-30T14:50:46.969Z,4.20
2019-01-30T14:53:14.058Z,12.07
2019-01-30T14:55:41.970Z,4.43
2019-01-30T14:58:09.035Z,6.83
2019-01-30T15:00:36.093Z,9.73
2019-01-30T15:03:03.231Z,5.83
2019-01-30T15:05:30.321Z,4.90
2019-01-30T15:07:57.548Z,4.10
2019-01-30T15:10:24.583Z,4.40
2019-01-30T15:12:51.684Z,5.07
2019-01-30T15:15:18.682Z,11.93
2019-01-30T15:17:45.757Z,6.33
2019-01-30T15:20:13.809Z,14.23
2019-01-30T15:22:40.852Z,17.30
2019-01-30T15:25:09.693Z,10.13
2019-01-30T15:27:36.997Z,10.33
2019-01-30T15:30:04.040Z,8.00
2019-01-30T15:32:32.015Z,8.13
2019-01-30T15:34:59.312Z,7.67
2019-01-30T15:37:26.260Z,7.23
2019-01-30T15:39:54.181Z,6.60
2019-01-30T15:42:21.185Z,5.73
2019-01-30T15:44:48.178Z,5.47
2019-01-30T15:47:15.989Z,5.30
2019-01-30T15:49:43.103Z,6.60
2019-01-30T15:52:10.139Z,6.17
2019-01-30T15:54:38.168Z,5.17
2019-01-30T15:57:06.085Z,7.20
2019-01-30T15:59:33.129Z,5.30
2019-01-30T16:02:00.183Z,5.00
2019-01-30T16:04:27.269Z,5.03
2019-01-30T16:06:55.104Z,6.20
2019-01-30T16:09:22.141Z,5.50
2019-01-30T16:11:50.667Z,5.60
2019-01-30T16:14:17.799Z,6.30
2019-01-30T16:16:45.132Z,6.13
2019-01-30T16:19:12.282Z,10.47
2019-01-30T16:21:41.908Z,9.47
2019-01-30T16:24:08.939Z,7.80
2019-01-30T16:26:35.932Z,6.13
2019-01-30T16:29:02.940Z,5.60
2019-01-30T16:31:30.106Z,6.13
2019-01-30T16:33:57.145Z,6.13
2019-01-30T16:36:25.206Z,7.00
2019-01-30T16:38:51.284Z,5.93
2019-01-30T16:41:18.385Z,6.53
2019-01-30T16:43:45.533Z,6.33
2019-01-30T16:46:12.587Z,5.70
2019-01-30T16:48:39.638Z,5.43
2019-01-30T16:51:06.677Z,5.33
2019-01-30T16:53:33.776Z,5.23
2019-01-30T16:56:00.897Z,5.23
2019-01-30T16:58:27.988Z,5.87
2019-01-30T17:00:55.280Z,5.17
2019-01-30T17:03:22.432Z,4.93
2019-01-30T17:05:50.915Z,6.50
2019-01-30T17:08:17.940Z,5.57
2019-01-30T17:10:45.016Z,5.93
2019-01-30T17:13:12.840Z,6.30
2019-01-30T17:15:39.177Z,10.43
2019-01-30T17:18:06.259Z,5.60
2019-01-30T17:20:37.921Z,9.63
2019-01-30T17:23:05.072Z,5.90
2019-01-30T17:25:32.320Z,6.87
2019-01-30T17:27:59.621Z,3.73
2019-01-30T17:30:26.724Z,3.73
2019-01-30T17:32:55.519Z,3.27
2019-01-30T17:35:22.601Z,2.77
2019-01-30T17:37:49.610Z,3.43
2019-01-30T17:40:16.604Z,3.17
2019-01-30T17:42:43.606Z,3.67
2019-01-30T17:45:10.659Z,3.47
2019-01-30T17:47:37.702Z,3.00
2019-01-30T17:50:04.750Z,3.07
2019-01-30T17:52:34.155Z,3.17
2019-01-30T17:55:01.109Z,3.87
2019-01-30T17:57:28.150Z,4.03
2019-01-30T17:59:55.199Z,3.90
2019-01-30T18:02:22.193Z,3.40
2019-01-30T18:04:49.191Z,3.60
2019-01-30T18:07:16.245Z,3.57
2019-01-30T18:09:43.187Z,3.90
2019-01-30T18:12:11.055Z,4.43
2019-01-30T18:14:38.109Z,4.10
2019-01-30T18:17:05.157Z,3.63
2019-01-30T18:19:32.200Z,4.23
2019-01-30T18:21:59.249Z,4.30
2019-01-30T18:24:26.305Z,4.50
2019-01-30T18:26:53.299Z,3.10
2019-01-30T18:29:20.296Z,5.77
2019-01-30T18:31:47.340Z,6.20
2019-01-30T18:34:14.389Z,5.67
2019-01-30T18:36:42.704Z,4.47
2019-01-30T18:39:09.717Z,5.30
2019-01-30T18:41:36.716Z,4.63
2019-01-30T18:44:03.819Z,5.53
2019-01-30T18:46:30.862Z,4.17
2019-01-30T18:48:59.137Z,5.20
2019-01-30T18:51:27.006Z,5.07
2019-01-30T18:53:54.053Z,4.00
2019-01-30T18:56:21.107Z,6.07
2019-01-30T18:58:48.151Z,18.10
2019-01-30T19:01:15.199Z,7.00
2019-01-30T19:03:42.349Z,5.80
2019-01-30T19:06:09.404Z,6.20
2019-01-30T19:08:36.447Z,6.80
2019-01-30T19:11:04.212Z,4.60
2019-01-30T19:13:31.263Z,5.90
2019-01-30T19:15:58.315Z,1.93
2019-01-30T19:18:25.926Z,5.33
2019-01-30T19:20:52.925Z,6.10
2019-01-30T19:23:20.582Z,3.43
2019-01-30T19:25:47.630Z,5.03
2019-01-30T19:28:16.373Z,10.13
2019-01-30T19:30:41.728Z,9.67
2019-01-30T19:33:09.909Z,7.53
2019-01-30T19:35:36.905Z,8.23
2019-01-30T19:41:01.566Z,9.40
2019-01-30T19:43:28.619Z,10.97
2019-01-30T19:45:55.660Z,10.20
2019-01-30T19:48:22.708Z,7.53
2019-01-30T19:50:49.765Z,1.20
2019-01-30T19:53:16.756Z,8.30
2019-01-30T19:55:43.760Z,8.43
2019-01-30T19:58:12.295Z,9.33
2019-01-30T20:00:37.950Z,9.17
2019-01-30T20:03:05.102Z,12.17
2019-01-30T20:05:32.150Z,5.67
2019-01-30T20:07:59.205Z,7.90
2019-01-30T20:10:26.247Z,9.93
2019-01-30T20:12:53.296Z,9.00
2019-01-30T20:15:20.350Z,14.90
2019-01-30T20:17:47.392Z,17.07
2019-01-30T20:20:14.544Z,17.37
2019-01-30T20:22:41.592Z,11.27
2019-01-30T20:25:08.744Z,9.87
2019-01-30T20:27:36.413Z,9.43
2019-01-30T20:30:03.455Z,8.50
2019-01-30T20:32:30.502Z,6.57
2019-01-30T20:34:59.498Z,7.70
2019-01-30T20:37:26.636Z,7.00
2019-01-30T20:39:54.009Z,6.97
2019-01-30T20:42:21.056Z,6.73
2019-01-30T20:44:48.002Z,8.03
2019-01-30T20:47:15.047Z,6.97
2019-01-30T20:49:42.094Z,6.83
2019-01-30T20:52:09.703Z,7.00
2019-01-30T20:54:36.757Z,7.00
2019-01-30T20:57:03.704Z,6.20
2019-01-30T20:59:30.699Z,6.97
2019-01-30T21:01:57.753Z,7.20
2019-01-30T21:04:24.795Z,10.77
2019-01-30T21:06:53.177Z,7.80
2019-01-30T21:09:22.276Z,7.27
2019-01-30T21:11:50.966Z,7.93
2019-01-30T21:14:18.007Z,7.20
2019-01-30T21:16:45.056Z,7.00
2019-01-30T21:19:12.207Z,7.53
2019-01-30T21:21:39.260Z,8.40
2019-01-30T21:24:07.946Z,7.23
2019-01-30T21:26:34.990Z,5.73
2019-01-30T21:29:02.039Z,7.60
2019-01-30T21:31:29.093Z,7.03
2019-01-30T21:33:56.137Z,7.10
2019-01-30T21:36:23.184Z,7.20
2019-01-30T21:38:50.239Z,7.37
2019-01-30T21:41:17.488Z,7.17
2019-01-30T21:43:44.541Z,6.70
2019-01-30T21:46:12.308Z,5.77
2019-01-30T21:48:39.349Z,7.03
2019-01-30T21:51:06.396Z,6.97
2019-01-30T21:53:33.453Z,6.23
2019-01-30T21:56:00.494Z,6.20
2019-01-30T21:58:27.543Z,6.83
2019-01-30T22:00:54.599Z,6.93
2019-01-30T22:03:21.639Z,6.13
2019-01-30T22:05:48.687Z,6.63
2019-01-30T22:08:15.742Z,7.43
2019-01-30T22:10:42.784Z,6.97
2019-01-30T22:13:09.835Z,6.57
2019-01-30T22:15:36.827Z,6.97
2019-01-30T22:18:03.932Z,7.47
2019-01-30T22:23:05.298Z,6.63
2019-01-30T22:25:32.348Z,6.47
2019-01-30T22:27:59.401Z,5.90
2019-01-30T22:30:29.520Z,5.27
2019-01-30T22:32:56.565Z,2.63
2019-01-30T22:35:23.620Z,7.33
2019-01-30T22:37:50.664Z,8.70
2019-01-30T22:40:19.965Z,7.27
2019-01-30T22:42:47.009Z,14.30
2019-01-30T22:45:16.368Z,5.93
2019-01-30T22:47:43.370Z,6.80
2019-01-30T22:50:10.408Z,5.70
2019-01-30T22:52:38.481Z,3.60
2019-01-30T22:55:05.531Z,4.70
2019-01-30T22:57:32.524Z,4.07
2019-01-30T23:00:00.804Z,4.20
2019-01-30T23:02:27.903Z,5.17
2019-01-30T23:05:10.626Z,5.60
2019-01-30T23:07:37.667Z,8.33
2019-01-30T23:10:20.537Z,6.17
2019-01-30T23:13:02.491Z,4.97
2019-01-30T23:15:34.346Z,5.20
2019-01-30T23:18:17.007Z,4.33
2019-01-30T23:20:46.062Z,5.37
2019-01-30T23:23:18.840Z,4.77
2019-01-30T23:25:46.707Z,8.07
2019-01-30T23:28:15.600Z,7.50
2019-01-30T23:31:00.363Z,8.77
2019-01-30T23:33:33.150Z,7.37
2019-01-30T23:36:15.049Z,12.67
2019-01-30T23:38:44.041Z,10.60
2019-01-30T23:41:14.055Z,9.53
2019-01-30T23:43:42.127Z,8.23
2019-01-30T23:46:14.510Z,6.93
2019-01-30T23:48:55.071Z,7.13
2019-01-30T23:51:24.162Z,3.53
2019-01-30T23:54:02.065Z,3.23
2019-01-30T23:56:30.138Z,4.10
2019-01-30T23:59:03.229Z,6.83
